Brownfield, Maine
Current Conditions -  °F | °C
As of 7:31 AM on Monday 24 Nov 2014 (Local Time) from KIZG Reporting Station
Heavy Rain Heavy Rain  
Wind Chill: 35°   Ceiling: 800
Heat Index: 35°   Visibility: 1.2mi
Dew Point: 34°   Wind: 0mph
Humidity: 96%   Direction: NA
Pressure: 29.89"   Gusts: NA
Location:  43.94°N, 70.91°W
Report Text: KIZG 241231Z AUTO 00000KT 1 1/4SM +RA BR OVC008 02/01 A2989 RMK AO2 P0014 T00170011
Loading
Personal Weather Stations






























Interactive Weather Map New forecast layout! Learn more

10-Day Weather Forecast

Advertisements
Track Severe Weather on mobile